Hay Airport


Codes: YHAY/HXX
Name: Hay Airport
City:
Country: Australia
Elevation: 305 ft.

Photos at Hay Airport


   Photos courtesy of SpottingLog. You can add your own sightings and photos by signing up for a free trial today.



No photos found.

Weather at Hay Airport


Time (UTC)DescriptionTempratureWindCloud coverageVisibilityPressureHumidity
13-Jun-2024 03:00Overcast Clouds10°C4 mph, S100%10000m1023hPa64%
13-Jun-2024 06:00Overcast Clouds11°C4 mph, SW100%10000m1022hPa61%
13-Jun-2024 09:00Overcast Clouds11°C4 mph, S100%10000m1022hPa61%
13-Jun-2024 12:00Overcast Clouds10°C2 mph, N100%10000m1022hPa63%
13-Jun-2024 15:00Overcast Clouds10°C2 mph, N100%10000m1021hPa63%
13-Jun-2024 18:00Overcast Clouds10°C2 mph, N100%10000m1020hPa71%
13-Jun-2024 21:00Light Rain9°C2 mph, E100%10000m1021hPa77%
14-Jun-2024 00:00Light Rain9°C4 mph, E100%10000m1021hPa85%
14-Jun-2024 03:00Moderate Rain9°C4 mph, NE100%10000m1019hPa90%
14-Jun-2024 06:00Light Rain9°C7 mph, E100%10000m1018hPa91%
14-Jun-2024 09:00Moderate Rain8°C7 mph, NE100%10000m1019hPa96%
14-Jun-2024 12:00Light Rain8°C9 mph, NE100%10000m1019hPa96%
14-Jun-2024 15:00Moderate Rain8°C7 mph, E100%10000m1018hPa96%
14-Jun-2024 18:00Light Rain8°C7 mph, E100%10000m1018hPa96%
14-Jun-2024 21:00Light Rain8°C7 mph, E98%10000m1019hPa95%
15-Jun-2024 00:00Overcast Clouds9°C7 mph, E99%10000m1020hPa92%
15-Jun-2024 03:00Overcast Clouds10°C7 mph, E100%10000m1018hPa88%
15-Jun-2024 06:00Light Rain10°C7 mph, SE100%10000m1018hPa88%
15-Jun-2024 09:00Overcast Clouds9°C9 mph, SE100%10000m1020hPa92%
15-Jun-2024 12:00Overcast Clouds9°C7 mph, SE100%10000m1020hPa95%
15-Jun-2024 15:00Overcast Clouds9°C7 mph, SE100%10000m1020hPa94%
15-Jun-2024 18:00Light Rain9°C7 mph, SE100%10000m1019hPa93%
15-Jun-2024 21:00Overcast Clouds9°C7 mph, S100%10000m1021hPa91%
16-Jun-2024 00:00Overcast Clouds10°C7 mph, S100%10000m1022hPa82%
16-Jun-2024 03:00Broken Clouds13°C9 mph, SW82%10000m1021hPa65%
16-Jun-2024 06:00Scattered Clouds13°C9 mph, SW49%10000m1020hPa65%
16-Jun-2024 09:00Clear Sky9°C9 mph, SW4%10000m1022hPa71%
16-Jun-2024 12:00Clear Sky8°C9 mph, S2%10000m1023hPa74%
16-Jun-2024 15:00Clear Sky6°C9 mph, S0%10000m1022hPa77%
16-Jun-2024 18:00Clear Sky5°C9 mph, SW0%10000m1023hPa85%
16-Jun-2024 21:00Clear Sky4°C9 mph, SW0%10000m1024hPa91%
17-Jun-2024 00:00Clear Sky8°C11 mph, S0%10000m1024hPa74%
17-Jun-2024 03:00Clear Sky12°C11 mph, S0%10000m1023hPa55%
17-Jun-2024 06:00Clear Sky12°C9 mph, SW0%10000m1022hPa53%
17-Jun-2024 09:00Clear Sky8°C9 mph, SW0%10000m1023hPa68%
17-Jun-2024 12:00Clear Sky7°C7 mph, SW10%10000m1023hPa75%
17-Jun-2024 15:00Broken Clouds6°C7 mph, SW71%10000m1023hPa78%
17-Jun-2024 18:00Broken Clouds5°C4 mph, SW64%10000m1022hPa81%
17-Jun-2024 21:00Overcast Clouds5°C2 mph, W100%10000m1022hPa81%
18-Jun-2024 00:00Overcast Clouds9°C4 mph, NW100%10000m1022hPa66%